createdAt,value
2023-03-02T00:01:03.390Z,5.27
2023-03-02T00:03:32.157Z,5.57
2023-03-02T00:05:59.725Z,5.77
2023-03-02T00:08:27.922Z,5.30
2023-03-02T00:10:56.535Z,5.57
2023-03-02T00:13:23.605Z,5.90
2023-03-02T00:15:50.227Z,5.60
2023-03-02T00:18:16.729Z,5.80
2023-03-02T00:20:43.186Z,5.00
2023-03-02T00:23:09.832Z,5.47
2023-03-02T00:25:36.469Z,5.20
2023-03-02T00:28:03.564Z,5.80
2023-03-02T00:30:30.095Z,5.67
2023-03-02T00:32:58.561Z,5.80
2023-03-02T00:35:28.410Z,5.30
2023-03-02T00:37:55.064Z,5.57
2023-03-02T00:40:21.536Z,5.67
2023-03-02T00:42:47.989Z,5.43
2023-03-02T00:45:14.421Z,5.17
2023-03-02T00:47:41.661Z,5.60
2023-03-02T00:50:09.814Z,5.73
2023-03-02T00:52:36.477Z,6.10
2023-03-02T00:55:03.319Z,6.33
2023-03-02T00:57:29.964Z,5.17
2023-03-02T00:59:56.411Z,6.00
2023-03-02T01:02:31.839Z,5.90
2023-03-02T01:04:58.728Z,6.30
2023-03-02T01:07:28.163Z,5.57
2023-03-02T01:09:54.654Z,6.57
2023-03-02T01:12:21.103Z,5.90
2023-03-02T01:14:48.897Z,6.50
2023-03-02T01:17:15.671Z,6.33
2023-03-02T01:19:42.276Z,6.30
2023-03-02T01:22:09.998Z,5.83
2023-03-02T01:24:36.444Z,6.17
2023-03-02T01:27:02.969Z,6.10
2023-03-02T01:29:29.438Z,6.30
2023-03-02T01:31:55.984Z,6.67
2023-03-02T01:34:22.625Z,6.23
2023-03-02T01:36:49.159Z,6.20
2023-03-02T01:39:16.154Z,6.03
2023-03-02T01:41:44.486Z,5.73
2023-03-02T01:44:41.079Z,5.70
2023-03-02T01:47:32.210Z,6.13
2023-03-02T01:50:24.358Z,5.87
2023-03-02T01:52:55.514Z,6.07
2023-03-02T01:55:25.653Z,6.20
2023-03-02T01:57:55.498Z,5.90
2023-03-02T02:00:34.254Z,6.40
2023-03-02T02:03:09.058Z,5.70
2023-03-02T02:05:43.031Z,6.27
2023-03-02T02:08:10.266Z,5.77
2023-03-02T02:10:39.802Z,6.10
2023-03-02T02:13:10.855Z,5.77
2023-03-02T02:15:38.898Z,6.20
2023-03-02T02:18:05.547Z,5.77
2023-03-02T02:20:41.285Z,5.57
2023-03-02T02:23:26.443Z,5.67
2023-03-02T02:25:55.564Z,5.80
2023-03-02T02:28:30.798Z,7.30
2023-03-02T02:31:26.777Z,6.33
2023-03-02T02:33:59.701Z,6.53
2023-03-02T02:36:34.934Z,6.57
2023-03-02T02:39:08.559Z,6.60
2023-03-02T02:41:38.200Z,5.83
2023-03-02T02:44:05.988Z,6.50
2023-03-02T02:46:34.126Z,6.60
2023-03-02T02:49:03.807Z,7.43
2023-03-02T02:51:30.367Z,7.50
2023-03-02T02:53:59.953Z,7.97
2023-03-02T02:56:35.985Z,7.27
2023-03-02T02:59:17.515Z,7.77
2023-03-02T03:01:45.892Z,7.90
2023-03-02T03:04:18.137Z,8.33
2023-03-02T03:06:57.098Z,8.67
2023-03-02T03:09:24.846Z,9.10
2023-03-02T03:12:02.591Z,9.23
2023-03-02T03:14:33.783Z,8.23
2023-03-02T03:17:00.572Z,8.43
2023-03-02T03:19:31.572Z,9.53
2023-03-02T03:22:01.257Z,9.30
2023-03-02T03:24:34.926Z,10.10
2023-03-02T03:27:05.308Z,10.33
2023-03-02T03:29:34.608Z,9.93
2023-03-02T03:32:03.384Z,9.03
2023-03-02T03:34:31.494Z,10.27
2023-03-02T03:37:01.785Z,10.27
2023-03-02T03:39:31.709Z,10.30
2023-03-02T03:41:58.896Z,10.30
2023-03-02T03:44:25.392Z,11.17
2023-03-02T03:46:52.520Z,13.43
2023-03-02T03:49:19.173Z,14.50
2023-03-02T03:51:45.784Z,17.30
2023-03-02T03:54:12.464Z,17.27
2023-03-02T03:56:45.844Z,18.93
2023-03-02T03:59:18.152Z,18.90
2023-03-02T04:01:53.222Z,19.80
2023-03-02T04:04:35.598Z,18.97
2023-03-02T04:07:07.329Z,20.83
2023-03-02T04:09:37.845Z,21.07
2023-03-02T04:12:06.711Z,21.53
2023-03-02T04:14:33.322Z,19.80
2023-03-02T04:17:00.852Z,20.73
2023-03-02T04:19:27.855Z,20.70
2023-03-02T04:21:58.826Z,20.53
2023-03-02T04:24:26.300Z,21.07
2023-03-02T04:26:55.656Z,21.70
2023-03-02T04:29:23.234Z,20.93
2023-03-02T04:31:50.839Z,21.60
2023-03-02T04:34:18.762Z,22.60
2023-03-02T04:36:46.848Z,20.93
2023-03-02T04:39:16.704Z,21.03
2023-03-02T04:41:47.913Z,20.97
2023-03-02T04:44:15.914Z,21.13
2023-03-02T04:46:44.953Z,21.60
2023-03-02T04:49:12.668Z,21.53
2023-03-02T04:51:42.911Z,21.43
2023-03-02T04:54:19.511Z,23.17
2023-03-02T04:56:48.517Z,22.17
2023-03-02T04:59:20.942Z,22.30
2023-03-02T05:01:48.111Z,21.87
2023-03-02T05:04:15.186Z,20.57
2023-03-02T05:06:41.782Z,21.10
2023-03-02T05:09:08.313Z,21.27
2023-03-02T05:11:35.689Z,20.50
2023-03-02T05:14:05.168Z,20.33
2023-03-02T05:16:34.536Z,21.30
2023-03-02T05:19:02.972Z,20.63
2023-03-02T05:21:30.396Z,20.83
2023-03-02T05:23:57.982Z,19.60
2023-03-02T05:26:24.448Z,21.13
2023-03-02T05:28:53.032Z,20.77
2023-03-02T05:31:29.148Z,20.03
2023-03-02T05:33:55.720Z,20.73
2023-03-02T05:36:23.338Z,20.93
2023-03-02T05:38:49.953Z,20.97
2023-03-02T05:41:16.442Z,23.00
2023-03-02T05:43:43.352Z,20.63
2023-03-02T05:46:09.837Z,21.37
2023-03-02T05:48:36.869Z,21.07
2023-03-02T05:51:03.666Z,19.93
2023-03-02T05:53:30.102Z,20.73
2023-03-02T05:55:56.827Z,21.13
2023-03-02T05:58:23.243Z,20.13
2023-03-02T06:00:49.967Z,21.67
2023-03-02T06:03:16.932Z,22.83
2023-03-02T06:05:43.915Z,21.50
2023-03-02T06:08:10.534Z,21.47
2023-03-02T06:10:36.992Z,20.10
2023-03-02T06:13:03.459Z,21.33
2023-03-02T06:15:29.910Z,21.33
2023-03-02T06:17:57.678Z,20.60
2023-03-02T06:20:24.730Z,20.20
2023-03-02T06:22:51.151Z,21.43
2023-03-02T06:25:23.136Z,21.10
2023-03-02T06:27:51.647Z,22.53
2023-03-02T06:30:22.295Z,22.30
2023-03-02T06:32:48.814Z,20.70
2023-03-02T06:35:15.954Z,22.07
2023-03-02T06:37:44.241Z,21.50
2023-03-02T06:40:12.100Z,22.50
2023-03-02T06:42:39.420Z,21.90
2023-03-02T06:45:07.692Z,20.97
2023-03-02T06:47:34.114Z,21.73
2023-03-02T06:50:00.912Z,21.37
2023-03-02T06:52:28.010Z,20.97
2023-03-02T06:54:55.904Z,21.67
2023-03-02T06:57:22.740Z,20.03
2023-03-02T06:59:49.140Z,22.57
2023-03-02T07:02:15.582Z,20.07
2023-03-02T07:04:42.132Z,20.57
2023-03-02T07:07:08.989Z,21.23
2023-03-02T07:09:35.496Z,21.87
2023-03-02T07:12:02.053Z,20.10
2023-03-02T07:14:28.446Z,20.30
2023-03-02T07:16:57.373Z,20.17
2023-03-02T07:19:24.228Z,20.67
2023-03-02T07:21:50.648Z,21.97
2023-03-02T07:24:17.106Z,20.63
2023-03-02T07:26:43.697Z,21.43
2023-03-02T07:29:10.228Z,21.60
2023-03-02T07:31:36.657Z,20.77
2023-03-02T07:34:03.113Z,24.60
2023-03-02T07:36:30.114Z,22.57
2023-03-02T07:38:56.531Z,24.10
2023-03-02T07:41:22.925Z,24.00
2023-03-02T07:43:49.386Z,25.30
2023-03-02T07:46:16.137Z,23.60
2023-03-02T07:48:42.848Z,25.30
2023-03-02T07:51:09.290Z,25.67
2023-03-02T07:53:36.138Z,26.17
2023-03-02T07:56:07.241Z,25.57
2023-03-02T07:58:35.272Z,25.10
2023-03-02T08:01:02.230Z,25.73
2023-03-02T08:03:28.802Z,24.70
2023-03-02T08:05:55.217Z,23.47
2023-03-02T08:08:21.690Z,22.63
2023-03-02T08:10:48.202Z,23.07
2023-03-02T08:13:14.617Z,24.00
2023-03-02T08:15:41.670Z,21.97
2023-03-02T08:18:08.096Z,22.50
2023-03-02T08:20:34.482Z,22.13
2023-03-02T08:23:01.060Z,25.07
2023-03-02T08:25:27.535Z,22.87
2023-03-02T08:27:54.019Z,22.97
2023-03-02T08:30:20.404Z,21.93
2023-03-02T08:32:47.025Z,22.10
2023-03-02T08:35:13.820Z,21.07
2023-03-02T08:37:40.329Z,21.93
2023-03-02T08:40:07.468Z,21.80
2023-03-02T08:42:33.895Z,21.53
2023-03-02T08:45:00.394Z,20.80
2023-03-02T08:47:28.500Z,21.03
2023-03-02T08:49:54.928Z,20.07
2023-03-02T08:52:21.362Z,19.73
2023-03-02T08:54:48.071Z,18.93
2023-03-02T08:57:14.525Z,20.27
2023-03-02T08:59:41.431Z,19.77
2023-03-02T09:02:12.265Z,18.80
2023-03-02T09:04:39.343Z,18.30
2023-03-02T09:07:05.957Z,19.50
2023-03-02T09:09:32.378Z,18.33
2023-03-02T09:11:58.912Z,19.47
2023-03-02T09:14:25.580Z,19.70
2023-03-02T09:16:52.772Z,19.33
2023-03-02T09:19:19.835Z,18.90
2023-03-02T09:21:46.287Z,19.43
2023-03-02T09:24:12.779Z,18.90
2023-03-02T09:26:39.277Z,20.30
2023-03-02T09:29:07.073Z,19.47
2023-03-02T09:31:34.960Z,18.23
2023-03-02T09:34:03.280Z,19.53
2023-03-02T09:36:32.535Z,18.57
2023-03-02T09:38:59.806Z,19.57
2023-03-02T09:41:51.150Z,20.77
2023-03-02T09:44:55.206Z,22.17
2023-03-02T09:47:35.502Z,20.17
2023-03-02T09:50:32.585Z,21.10
2023-03-02T09:53:33.239Z,22.50
2023-03-02T09:56:02.056Z,24.87
2023-03-02T09:58:37.630Z,21.00
2023-03-02T10:01:15.456Z,19.80
2023-03-02T10:03:57.332Z,20.40
2023-03-02T10:06:24.116Z,20.60
2023-03-02T10:08:50.974Z,21.07
2023-03-02T10:11:39.439Z,23.93
2023-03-02T10:14:14.992Z,25.73
2023-03-02T10:16:46.946Z,26.17
2023-03-02T10:19:20.900Z,24.80
2023-03-02T10:21:58.132Z,23.47
2023-03-02T10:24:38.107Z,23.33
2023-03-02T10:27:18.275Z,22.13
2023-03-02T10:29:55.761Z,25.00
2023-03-02T10:32:32.017Z,31.07
2023-03-02T10:35:01.431Z,29.93
2023-03-02T10:37:30.788Z,33.27
2023-03-02T10:39:57.309Z,37.77
2023-03-02T10:42:32.160Z,35.93
2023-03-02T10:45:27.119Z,34.17
2023-03-02T10:48:09.743Z,33.23
2023-03-02T10:50:37.219Z,33.47
2023-03-02T10:53:07.477Z,34.30
2023-03-02T10:55:34.881Z,34.13
2023-03-02T10:58:05.862Z,34.67
2023-03-02T11:00:34.388Z,35.23
2023-03-02T11:06:19.684Z,32.70
2023-03-02T11:08:46.242Z,33.17
2023-03-02T11:11:22.278Z,33.27
2023-03-02T11:13:48.935Z,33.97
2023-03-02T11:16:18.392Z,33.80
2023-03-02T11:18:57.670Z,34.00
2023-03-02T11:21:33.044Z,32.97
2023-03-02T11:24:12.730Z,32.57
2023-03-02T11:26:46.092Z,32.87
2023-03-02T11:29:34.003Z,34.43
2023-03-02T11:32:31.024Z,34.10
2023-03-02T11:35:03.347Z,35.10
2023-03-02T11:37:37.687Z,35.27
2023-03-02T11:40:30.213Z,35.33
2023-03-02T11:42:59.257Z,34.57
2023-03-02T11:45:44.778Z,36.87
2023-03-02T11:48:25.293Z,38.03
2023-03-02T11:51:05.299Z,37.03
2023-03-02T11:53:57.872Z,34.07
2023-03-02T11:56:26.432Z,34.30
2023-03-02T11:59:00.135Z,35.87
2023-03-02T12:01:28.668Z,35.43
2023-03-02T12:04:07.202Z,34.63
2023-03-02T12:06:40.772Z,34.77
2023-03-02T12:09:30.760Z,33.77
2023-03-02T12:12:17.146Z,32.27
2023-03-02T12:14:43.738Z,32.00
2023-03-02T12:17:25.147Z,31.60
2023-03-02T12:20:08.403Z,31.23
2023-03-02T12:22:36.022Z,33.10
2023-03-02T12:25:20.154Z,34.70
2023-03-02T12:27:49.836Z,34.30
2023-03-02T12:30:16.655Z,34.17
2023-03-02T12:33:18.412Z,34.87
2023-03-02T12:35:46.256Z,34.87
2023-03-02T12:38:32.516Z,36.17
2023-03-02T12:41:13.706Z,34.33
2023-03-02T12:44:12.951Z,33.27
2023-03-02T12:46:45.810Z,34.47
2023-03-02T12:49:20.907Z,34.73
2023-03-02T12:51:51.964Z,33.30
2023-03-02T12:54:24.200Z,33.70
2023-03-02T12:57:06.743Z,35.90
2023-03-02T12:59:33.166Z,34.60
2023-03-02T13:02:21.257Z,34.20
2023-03-02T13:04:59.666Z,28.80
2023-03-02T13:07:41.107Z,26.77
2023-03-02T13:10:22.535Z,28.67
2023-03-02T13:12:49.060Z,26.43
2023-03-02T13:15:17.230Z,31.60
2023-03-02T13:17:44.718Z,27.57
2023-03-02T13:20:14.479Z,25.63
2023-03-02T13:22:41.677Z,20.73
2023-03-02T13:25:22.204Z,21.47
2023-03-02T13:27:54.379Z,22.63
2023-03-02T13:30:30.973Z,23.90
2023-03-02T13:33:06.209Z,20.13
2023-03-02T13:35:35.984Z,20.17
2023-03-02T13:38:14.140Z,19.07
2023-03-02T13:40:44.730Z,19.07
2023-03-02T13:43:36.030Z,19.73
2023-03-02T13:46:24.493Z,19.60
2023-03-02T13:49:14.280Z,18.40
2023-03-02T13:51:45.159Z,19.83
2023-03-02T13:54:25.581Z,19.40
2023-03-02T13:56:53.606Z,19.77
2023-03-02T13:59:21.567Z,20.13
2023-03-02T14:01:48.543Z,19.53
2023-03-02T14:04:17.725Z,19.07
2023-03-02T14:06:45.866Z,19.17
2023-03-02T14:09:13.036Z,19.47
2023-03-02T14:11:43.951Z,19.03
2023-03-02T14:14:20.763Z,18.10
2023-03-02T14:16:47.280Z,19.80
2023-03-02T14:19:16.222Z,19.20
2023-03-02T14:21:43.353Z,19.40
2023-03-02T14:24:10.611Z,20.13
2023-03-02T14:26:40.814Z,19.60
2023-03-02T14:29:25.209Z,18.70
2023-03-02T14:31:51.722Z,20.23
2023-03-02T14:34:18.544Z,19.50
2023-03-02T14:36:48.398Z,18.80
2023-03-02T14:39:36.599Z,19.37
2023-03-02T14:42:10.759Z,18.97
2023-03-02T14:44:37.312Z,17.70
2023-03-02T14:47:03.745Z,18.23
2023-03-02T14:49:30.207Z,19.27
2023-03-02T14:52:05.490Z,20.23
2023-03-02T14:54:39.700Z,18.53
2023-03-02T14:57:17.013Z,20.07
2023-03-02T14:59:43.965Z,18.47
2023-03-02T15:02:24.365Z,20.00
2023-03-02T15:04:56.084Z,19.13
2023-03-02T15:07:24.073Z,20.40
2023-03-02T15:09:50.491Z,19.87
2023-03-02T15:12:17.015Z,19.87
2023-03-02T15:14:44.055Z,20.57
2023-03-02T15:17:10.810Z,20.87
2023-03-02T15:19:37.281Z,21.10
2023-03-02T15:22:04.827Z,20.30
2023-03-02T15:24:33.243Z,20.67
2023-03-02T15:27:00.291Z,20.80
2023-03-02T15:29:26.739Z,21.77
2023-03-02T15:31:53.240Z,21.07
2023-03-02T15:34:19.829Z,20.17
2023-03-02T15:36:46.284Z,22.23
2023-03-02T15:39:14.320Z,20.73
2023-03-02T15:41:42.266Z,20.93
2023-03-02T15:44:21.427Z,20.50
2023-03-02T15:46:55.151Z,21.43
2023-03-02T15:49:24.387Z,20.47
2023-03-02T15:51:52.010Z,21.73
2023-03-02T15:54:19.177Z,22.20
2023-03-02T15:56:49.443Z,20.77
2023-03-02T15:59:16.006Z,20.87
2023-03-02T16:01:42.460Z,22.67
2023-03-02T16:04:09.229Z,21.10
2023-03-02T16:06:35.929Z,20.80
2023-03-02T16:09:03.286Z,21.20
2023-03-02T16:11:30.122Z,21.27
2023-03-02T16:13:56.593Z,21.47
2023-03-02T16:16:23.520Z,21.93
2023-03-02T16:18:55.322Z,21.50
2023-03-02T16:21:22.860Z,22.10
2023-03-02T16:23:49.485Z,21.60
2023-03-02T16:26:19.485Z,23.90
2023-03-02T16:28:46.352Z,22.30
2023-03-02T16:31:20.407Z,24.20
2023-03-02T16:33:49.820Z,23.03
2023-03-02T16:36:17.246Z,22.33
2023-03-02T16:38:44.383Z,20.90
2023-03-02T16:41:15.229Z,23.33
2023-03-02T16:43:46.499Z,22.77
2023-03-02T16:46:13.254Z,22.07
2023-03-02T16:48:39.645Z,22.70
2023-03-02T16:51:06.733Z,22.53
2023-03-02T16:53:33.410Z,23.00
2023-03-02T16:56:00.316Z,24.33
2023-03-02T16:58:27.357Z,26.97
2023-03-02T17:00:54.994Z,23.30
2023-03-02T17:03:21.961Z,24.20
2023-03-02T17:05:48.490Z,24.37
2023-03-02T17:08:16.081Z,24.67
2023-03-02T17:10:43.707Z,23.27
2023-03-02T17:13:13.072Z,23.93
2023-03-02T17:15:39.741Z,25.20
2023-03-02T17:18:06.350Z,24.43
2023-03-02T17:20:32.776Z,23.93
2023-03-02T17:22:59.265Z,23.60
2023-03-02T17:25:25.819Z,23.57
2023-03-02T17:27:52.278Z,22.57
2023-03-02T17:30:18.918Z,23.93
2023-03-02T17:32:45.390Z,22.50
2023-03-02T17:35:13.888Z,22.50
2023-03-02T17:37:40.494Z,21.10
2023-03-02T17:40:08.076Z,20.83
2023-03-02T17:42:34.529Z,20.13
2023-03-02T17:45:01.308Z,20.43
2023-03-02T17:47:27.851Z,20.40
2023-03-02T17:49:56.135Z,20.03
2023-03-02T17:52:22.629Z,19.27
2023-03-02T17:54:49.434Z,20.10
2023-03-02T17:57:21.757Z,17.30
2023-03-02T17:59:51.814Z,17.53
2023-03-02T18:02:19.270Z,17.90
2023-03-02T18:04:46.365Z,17.57
2023-03-02T18:07:13.353Z,18.70
2023-03-02T18:09:39.819Z,18.77
2023-03-02T18:12:07.479Z,18.10
2023-03-02T18:14:35.461Z,18.17
2023-03-02T18:17:04.831Z,18.43
2023-03-02T18:19:31.544Z,18.20
2023-03-02T18:21:58.083Z,18.77
2023-03-02T18:24:25.747Z,18.90
2023-03-02T18:26:52.177Z,19.73
2023-03-02T18:29:18.949Z,19.40
2023-03-02T18:31:45.495Z,20.40
2023-03-02T18:34:12.035Z,20.00
2023-03-02T18:36:38.497Z,20.87
2023-03-02T18:39:04.906Z,21.40
2023-03-02T18:41:32.341Z,20.67
2023-03-02T18:44:02.605Z,20.07
2023-03-02T18:46:31.196Z,21.17
2023-03-02T18:49:00.354Z,21.80
2023-03-02T18:51:28.343Z,21.00
2023-03-02T18:53:55.317Z,21.80
2023-03-02T18:56:22.196Z,22.63
2023-03-02T18:58:49.505Z,21.53
2023-03-02T19:01:16.182Z,20.23
2023-03-02T19:03:46.034Z,20.83
2023-03-02T19:06:13.499Z,21.80
2023-03-02T19:08:40.081Z,20.97
2023-03-02T19:11:06.931Z,19.87
2023-03-02T19:13:33.645Z,21.37
2023-03-02T19:16:01.976Z,20.43
2023-03-02T19:18:30.881Z,19.63
2023-03-02T19:20:57.724Z,21.63
2023-03-02T19:23:24.907Z,19.73
2023-03-02T19:25:51.644Z,19.77
2023-03-02T19:28:18.043Z,20.23
2023-03-02T19:30:44.858Z,19.67
2023-03-02T19:33:11.548Z,18.03
2023-03-02T19:35:38.509Z,19.47
2023-03-02T19:38:06.417Z,18.97
2023-03-02T19:40:34.423Z,18.93
2023-03-02T19:43:01.922Z,18.20
2023-03-02T19:45:32.262Z,18.20
2023-03-02T19:48:01.147Z,17.30
2023-03-02T19:50:28.826Z,17.03
2023-03-02T19:52:56.194Z,16.40
2023-03-02T19:55:24.386Z,15.40
2023-03-02T19:57:56.952Z,15.53
2023-03-02T20:00:24.065Z,15.30
2023-03-02T20:02:50.681Z,14.83
2023-03-02T20:05:17.658Z,14.27
2023-03-02T20:07:44.479Z,14.20
2023-03-02T20:10:17.447Z,14.13
2023-03-02T20:12:44.012Z,13.60
2023-03-02T20:15:10.944Z,14.00
2023-03-02T20:17:37.440Z,13.30
2023-03-02T20:20:05.551Z,13.67
2023-03-02T20:22:31.941Z,13.20
2023-03-02T20:24:59.443Z,13.47
2023-03-02T20:27:26.056Z,15.23
2023-03-02T20:29:52.508Z,13.77
2023-03-02T20:32:19.040Z,14.63
2023-03-02T20:34:45.496Z,14.83
2023-03-02T20:37:14.945Z,14.40
2023-03-02T20:39:45.208Z,15.17
2023-03-02T20:42:12.230Z,14.07
2023-03-02T20:44:39.519Z,14.87
2023-03-02T20:47:09.754Z,14.73
2023-03-02T20:49:37.496Z,14.43
2023-03-02T20:52:05.241Z,15.23
2023-03-02T20:54:36.768Z,14.47
2023-03-02T20:57:05.246Z,15.70
2023-03-02T20:59:32.786Z,14.93
2023-03-02T21:02:00.264Z,15.33
2023-03-02T21:04:28.656Z,15.13
2023-03-02T21:06:55.170Z,15.43
2023-03-02T21:09:21.671Z,15.40
2023-03-02T21:11:48.411Z,15.63
2023-03-02T21:14:15.195Z,16.87
2023-03-02T21:16:44.446Z,16.50
2023-03-02T21:19:15.239Z,15.87
2023-03-02T21:21:42.593Z,16.33
2023-03-02T21:24:16.894Z,16.77
2023-03-02T21:26:45.623Z,16.57
2023-03-02T21:29:13.625Z,16.20
2023-03-02T21:31:42.120Z,17.43
2023-03-02T21:34:08.721Z,16.60
2023-03-02T21:36:35.443Z,16.43
2023-03-02T21:39:04.264Z,16.33
2023-03-02T21:41:30.780Z,16.67
2023-03-02T21:43:57.777Z,16.63
2023-03-02T21:46:24.500Z,17.70
2023-03-02T21:48:51.469Z,18.10
2023-03-02T21:51:18.121Z,18.03
2023-03-02T21:53:45.022Z,18.07
2023-03-02T21:56:20.498Z,19.23
2023-03-02T21:58:55.714Z,19.23
2023-03-02T22:01:22.596Z,18.63
2023-03-02T22:03:49.934Z,19.80
2023-03-02T22:06:25.538Z,19.40
2023-03-02T22:08:52.194Z,18.20
2023-03-02T22:11:24.718Z,18.63
2023-03-02T22:13:53.870Z,19.33
2023-03-02T22:16:23.023Z,19.03
2023-03-02T22:18:54.201Z,18.87
2023-03-02T22:21:33.334Z,19.80
2023-03-02T22:24:09.727Z,20.10
2023-03-02T22:26:40.794Z,18.30
2023-03-02T22:29:16.380Z,19.53
2023-03-02T22:31:47.543Z,17.87
2023-03-02T22:34:18.714Z,17.57
2023-03-02T22:36:46.766Z,18.00
2023-03-02T22:39:29.941Z,18.13
2023-03-02T22:42:06.212Z,18.13
2023-03-02T22:44:33.413Z,19.53
2023-03-02T22:47:00.358Z,18.30
2023-03-02T22:49:29.479Z,18.73
2023-03-02T22:52:01.003Z,17.60
2023-03-02T22:54:36.368Z,17.30
2023-03-02T22:57:03.969Z,18.13
2023-03-02T22:59:37.379Z,18.47
2023-03-02T23:02:14.755Z,19.50
2023-03-02T23:04:41.785Z,17.83
2023-03-02T23:07:26.790Z,18.33
2023-03-02T23:09:53.242Z,18.17
2023-03-02T23:12:27.563Z,19.27
2023-03-02T23:14:56.249Z,17.17
2023-03-02T23:17:35.980Z,17.70
2023-03-02T23:20:09.122Z,18.53
2023-03-02T23:22:36.087Z,17.17
2023-03-02T23:25:03.499Z,18.87
2023-03-02T23:27:30.044Z,17.87
2023-03-02T23:29:56.501Z,18.10
2023-03-02T23:32:23.012Z,16.70
2023-03-02T23:34:50.120Z,16.27
2023-03-02T23:37:17.374Z,16.30
2023-03-02T23:39:46.012Z,17.60
2023-03-02T23:42:12.658Z,16.57
2023-03-02T23:44:39.108Z,16.17
2023-03-02T23:47:05.537Z,16.13
2023-03-02T23:49:32.214Z,16.60
2023-03-02T23:51:58.695Z,16.27
2023-03-02T23:54:25.156Z,16.87
2023-03-02T23:56:51.573Z,16.73
2023-03-02T23:59:17.997Z,16.13
